Time;durP1;ratioP1;P1;durP2;ratioP2;P2;SDS_P1;SDS_P2;PMS_P1;PMS_P2;Temp;Humidity;BMP_temperature;BMP_pressure;BME280_temperature;BME280_humidity;BME280_pressure;Samples;Min_cycle;Max_cycle;Signal;HPM_P1;HPM_P2
2023/05/13 00:01:47;;;;;;;4.55;3.88;;;15.60;99.90;;;;;;4104096;28;20047;-58
2023/05/13 00:03:51;;;;;;;5.33;3.83;;;15.60;99.90;;;;;;4099564;28;20438;-57
2023/05/13 00:05:54;;;;;;;4.80;4.30;;;15.60;99.90;;;;;;4113294;28;20493;-57
2023/05/13 00:08:00;;;;;;;5.50;4.10;;;15.60;99.90;;;;;;4114543;28;20054;-57
2023/05/13 00:10:03;;;;;;;4.57;3.97;;;15.50;99.90;;;;;;4108259;28;20465;-57
2023/05/13 00:12:05;;;;;;;4.95;4.43;;;15.50;99.90;;;;;;4092415;28;20059;-57
2023/05/13 00:14:09;;;;;;;6.30;4.53;;;15.50;99.90;;;;;;4112223;28;20473;-57
2023/05/13 00:16:12;;;;;;;5.63;4.70;;;15.40;99.90;;;;;;4109462;28;20043;-56
2023/05/13 00:18:17;;;;;;;6.25;4.68;;;15.30;99.90;;;;;;4098946;29;20118;-56
2023/05/13 00:20:19;;;;;;;6.00;4.85;;;15.20;99.90;;;;;;4086966;29;20071;-58
2023/05/13 00:22:21;;;;;;;5.00;4.50;;;15.20;99.90;;;;;;4107109;28;20106;-57
2023/05/13 00:24:25;;;;;;;5.93;4.63;;;15.20;99.90;;;;;;4113160;28;20047;-57
2023/05/13 00:26:27;;;;;;;5.32;4.38;;;15.30;99.90;;;;;;4119689;28;20053;-57
2023/05/13 00:28:29;;;;;;;4.78;3.83;;;15.20;99.90;;;;;;4115272;28;20063;-58
2023/05/13 00:30:31;;;;;;;5.47;4.45;;;15.40;99.90;;;;;;4110080;28;20051;-57
2023/05/13 00:32:33;;;;;;;5.00;4.38;;;15.30;99.90;;;;;;4107534;28;20143;-56
2023/05/13 00:34:36;;;;;;;6.95;5.22;;;15.40;99.90;;;;;;4113808;28;20075;-56
2023/05/13 00:36:38;;;;;;;6.45;4.82;;;15.30;99.90;;;;;;4110107;28;20051;-56
2023/05/13 00:38:42;;;;;;;6.57;4.97;;;15.20;99.90;;;;;;4114665;28;20088;-57
2023/05/13 00:40:46;;;;;;;6.60;4.60;;;15.20;99.90;;;;;;4112459;28;20476;-57
2023/05/13 00:42:48;;;;;;;5.38;4.43;;;15.10;99.90;;;;;;4109711;28;20098;-57
2023/05/13 00:44:51;;;;;;;7.35;4.13;;;15.10;99.90;;;;;;4116663;28;20050;-58
2023/05/13 00:46:53;;;;;;;6.32;5.35;;;15.10;99.90;;;;;;4106219;28;20055;-57
2023/05/13 00:48:55;;;;;;;6.88;4.43;;;15.10;99.90;;;;;;4117086;28;20054;-57
2023/05/13 00:50:58;;;;;;;5.38;4.32;;;15.10;99.90;;;;;;4114436;28;20371;-57
2023/05/13 00:53:03;;;;;;;5.75;4.20;;;15.10;99.90;;;;;;4108388;28;20053;-57
2023/05/13 00:55:06;;;;;;;5.38;3.83;;;15.30;99.90;;;;;;4116425;28;20122;-57
2023/05/13 00:57:10;;;;;;;8.05;4.80;;;15.20;99.90;;;;;;4106713;28;20047;-58
2023/05/13 00:59:12;;;;;;;5.82;5.05;;;15.30;99.90;;;;;;4116426;28;20047;-57
2023/05/13 01:01:19;;;;;;;4.72;4.22;;;15.20;99.90;;;;;;4115107;28;20108;-57
2023/05/13 01:03:32;;;;;;;6.30;4.90;;;15.20;99.90;;;;;;4107241;28;20043;-56
2023/05/13 01:05:42;;;;;;;8.73;5.45;;;15.10;99.90;;;;;;4113214;28;20053;-58
2023/05/13 01:07:52;;;;;;;5.45;4.82;;;15.00;99.90;;;;;;4105593;28;20541;-57
2023/05/13 01:10:02;;;;;;;4.20;3.80;;;15.10;99.90;;;;;;4117235;28;20058;-57
2023/05/13 01:12:09;;;;;;;5.28;4.63;;;15.20;99.90;;;;;;4111046;28;20055;-57
2023/05/13 01:14:18;;;;;;;5.38;4.35;;;15.20;99.90;;;;;;4110998;28;20047;-57
2023/05/13 01:16:24;;;;;;;4.72;4.22;;;15.20;99.90;;;;;;4115749;28;20511;-57
2023/05/13 01:18:32;;;;;;;6.15;4.72;;;15.20;99.90;;;;;;4106310;28;20042;-58
2023/05/13 01:20:36;;;;;;;8.45;5.63;;;15.10;99.90;;;;;;4116776;28;20043;-57
2023/05/13 01:22:40;;;;;;;5.40;4.22;;;15.20;99.90;;;;;;4118001;28;20055;-56
2023/05/13 01:24:42;;;;;;;4.82;4.28;;;15.20;99.90;;;;;;4115846;28;20051;-56
2023/05/13 01:26:44;;;;;;;7.55;5.45;;;15.20;99.90;;;;;;4124202;28;20044;-57
2023/05/13 01:28:46;;;;;;;6.30;5.60;;;15.20;99.90;;;;;;4111998;28;20106;-57
2023/05/13 01:30:48;;;;;;;9.20;5.93;;;15.10;99.90;;;;;;4101121;29;20266;-57
2023/05/13 01:32:51;;;;;;;11.15;5.78;;;15.00;99.90;;;;;;4107674;28;20051;-56
2023/05/13 01:34:54;;;;;;;7.22;5.82;;;14.90;99.90;;;;;;4115630;28;20063;-56
2023/05/13 01:36:57;;;;;;;9.38;6.20;;;14.90;99.90;;;;;;4116897;28;20051;-56
2023/05/13 01:39:02;;;;;;;5.85;5.25;;;14.90;99.90;;;;;;4111840;28;20121;-57
2023/05/13 01:41:04;;;;;;;8.52;5.05;;;14.90;99.90;;;;;;4101276;29;20078;-57
2023/05/13 01:43:07;;;;;;;7.20;5.38;;;14.90;99.90;;;;;;4106979;28;20050;-56
2023/05/13 01:45:10;;;;;;;7.20;5.55;;;14.80;99.90;;;;;;4124587;28;20045;-56
2023/05/13 01:47:12;;;;;;;11.70;5.38;;;14.80;99.90;;;;;;4099118;29;20094;-57
2023/05/13 01:49:14;;;;;;;5.38;4.88;;;14.80;99.90;;;;;;4111340;28;20050;-56
2023/05/13 01:51:16;;;;;;;8.50;5.95;;;14.80;99.90;;;;;;4100561;28;20075;-57
2023/05/13 01:53:18;;;;;;;10.48;5.65;;;14.90;99.90;;;;;;4104592;28;20049;-56
2023/05/13 01:55:22;;;;;;;7.00;4.22;;;14.90;99.90;;;;;;4106808;28;20130;-56
2023/05/13 01:57:24;;;;;;;7.05;5.28;;;14.90;99.90;;;;;;4100992;28;20481;-56
2023/05/13 01:59:26;;;;;;;7.40;6.50;;;14.90;99.90;;;;;;4112582;28;20050;-57
2023/05/13 02:01:28;;;;;;;7.50;5.60;;;14.90;99.90;;;;;;4100677;29;20068;-56
2023/05/13 02:03:30;;;;;;;10.23;6.15;;;14.90;99.90;;;;;;4110355;28;20038;-58
2023/05/13 02:05:32;;;;;;;6.63;5.25;;;14.80;99.90;;;;;;4113781;28;20051;-58
2023/05/13 02:07:34;;;;;;;6.22;4.93;;;14.80;99.90;;;;;;4100807;29;20055;-58
2023/05/13 02:09:36;;;;;;;5.97;5.38;;;14.80;99.90;;;;;;4111579;28;20057;-60
2023/05/13 02:11:39;;;;;;;7.70;5.45;;;14.80;99.90;;;;;;4101401;28;20047;-57
2023/05/13 02:13:41;;;;;;;9.43;4.70;;;14.80;99.90;;;;;;4101349;28;20047;-56
2023/05/13 02:15:44;;;;;;;6.38;5.30;;;14.80;99.90;;;;;;4107227;28;20047;-60
2023/05/13 02:17:46;;;;;;;6.95;5.95;;;14.80;99.90;;;;;;4116977;28;20046;-59
2023/05/13 02:19:48;;;;;;;6.30;5.70;;;14.80;99.90;;;;;;4106479;28;20051;-57
2023/05/13 02:21:50;;;;;;;7.00;5.65;;;14.70;99.90;;;;;;4114453;28;20453;-57
2023/05/13 02:23:52;;;;;;;15.80;5.97;;;14.60;99.90;;;;;;4111886;28;20310;-58
2023/05/13 02:25:54;;;;;;;7.72;6.20;;;14.70;99.90;;;;;;4116527;28;20093;-57
2023/05/13 02:27:58;;;;;;;6.80;5.63;;;14.70;99.90;;;;;;4116448;28;20081;-56
2023/05/13 02:30:00;;;;;;;8.80;7.30;;;14.70;99.90;;;;;;4107220;28;20445;-57
2023/05/13 02:32:03;;;;;;;10.35;6.78;;;14.70;99.90;;;;;;4095884;28;20138;-57
2023/05/13 02:34:05;;;;;;;7.50;6.50;;;14.70;99.90;;;;;;4111884;28;20047;-58
2023/05/13 02:36:07;;;;;;;7.72;6.72;;;14.70;99.90;;;;;;4110888;28;20067;-57
2023/05/13 02:38:09;;;;;;;7.75;7.05;;;14.70;99.90;;;;;;4104213;28;20125;-56
2023/05/13 02:40:12;;;;;;;9.70;8.18;;;14.80;99.90;;;;;;4108077;28;20533;-57
2023/05/13 02:42:14;;;;;;;8.15;6.43;;;14.90;99.90;;;;;;4094556;28;20058;-58
2023/05/13 02:44:17;;;;;;;13.20;8.40;;;15.00;99.90;;;;;;4113497;28;20047;-57
2023/05/13 02:46:19;;;;;;;10.98;9.45;;;15.00;99.90;;;;;;4105074;28;20540;-57
2023/05/13 02:48:21;;;;;;;8.38;7.13;;;14.90;99.90;;;;;;4115719;28;20459;-57
2023/05/13 02:50:24;;;;;;;9.68;7.18;;;15.00;99.90;;;;;;4109257;28;20126;-56
2023/05/13 02:52:26;;;;;;;11.52;10.25;;;14.90;99.90;;;;;;4110254;28;20105;-57
2023/05/13 02:54:28;;;;;;;14.07;10.60;;;14.90;99.90;;;;;;4113338;28;20057;-57
2023/05/13 02:56:30;;;;;;;13.90;10.60;;;14.90;99.90;;;;;;4093520;29;20053;-56
2023/05/13 02:58:33;;;;;;;19.17;11.93;;;14.90;99.90;;;;;;4082708;29;20051;-58
2023/05/13 03:00:36;;;;;;;13.55;11.45;;;14.70;99.90;;;;;;4104438;28;20047;-58
2023/05/13 03:02:38;;;;;;;18.17;12.68;;;14.80;99.90;;;;;;4106042;28;20062;-56
2023/05/13 03:04:41;;;;;;;14.52;12.23;;;14.70;99.90;;;;;;4100553;28;20051;-55
2023/05/13 03:06:43;;;;;;;14.93;12.82;;;14.60;99.90;;;;;;4103623;28;20102;-56
2023/05/13 03:08:45;;;;;;;17.15;13.23;;;14.60;99.90;;;;;;4115771;28;20081;-56
2023/05/13 03:10:47;;;;;;;20.48;14.32;;;14.60;99.90;;;;;;4111349;28;20830;-57
2023/05/13 03:12:49;;;;;;;16.52;14.85;;;14.60;99.90;;;;;;4107782;28;20054;-57
2023/05/13 03:14:51;;;;;;;17.77;15.32;;;14.50;99.90;;;;;;4114331;28;20456;-57
2023/05/13 03:16:54;;;;;;;18.52;15.48;;;14.50;99.90;;;;;;4103517;28;20051;-56
2023/05/13 03:18:56;;;;;;;16.63;12.52;;;14.50;99.90;;;;;;4098153;28;20058;-57
2023/05/13 03:20:59;;;;;;;22.95;18.10;;;14.50;99.90;;;;;;4112225;28;20046;-58
2023/05/13 03:23:01;;;;;;;19.05;17.05;;;14.50;99.90;;;;;;4107384;28;20492;-56
2023/05/13 03:25:03;;;;;;;22.90;20.38;;;14.40;99.90;;;;;;4113905;28;20054;-57
2023/05/13 03:27:05;;;;;;;21.60;19.30;;;14.50;99.90;;;;;;4111021;28;20043;-56
2023/05/13 03:29:07;;;;;;;23.13;20.38;;;14.40;99.90;;;;;;4100955;28;20051;-56
2023/05/13 03:31:09;;;;;;;26.08;20.23;;;14.40;99.90;;;;;;4100119;28;20481;-56
2023/05/13 03:33:13;;;;;;;25.17;20.90;;;14.30;99.90;;;;;;4109547;28;20069;-58
2023/05/13 03:35:15;;;;;;;26.77;22.65;;;14.30;99.90;;;;;;4113511;28;20057;-57
2023/05/13 03:37:17;;;;;;;28.50;24.08;;;14.20;99.90;;;;;;4106151;28;20043;-56
2023/05/13 03:39:19;;;;;;;26.83;23.25;;;14.20;99.90;;;;;;4099182;28;20123;-56
2023/05/13 03:41:21;;;;;;;30.67;26.08;;;14.20;99.90;;;;;;4100222;28;20047;-55
2023/05/13 03:43:23;;;;;;;36.85;29.27;;;14.20;99.90;;;;;;4109666;28;20051;-56
2023/05/13 03:45:25;;;;;;;40.95;30.58;;;14.20;99.90;;;;;;4097738;29;20058;-56
2023/05/13 03:47:27;;;;;;;30.80;26.05;;;14.30;99.90;;;;;;4103406;28;20098;-57
2023/05/13 03:49:31;;;;;;;42.97;35.63;;;14.30;99.90;;;;;;4111049;28;20286;-57
2023/05/13 03:51:33;;;;;;;42.42;32.58;;;14.20;99.90;;;;;;4113408;28;20125;-56
2023/05/13 03:53:35;;;;;;;46.40;35.72;;;14.20;99.90;;;;;;4103962;28;20404;-56
2023/05/13 03:55:37;;;;;;;47.30;35.80;;;14.20;99.90;;;;;;4113952;28;20046;-57
2023/05/13 03:57:40;;;;;;;47.80;37.13;;;14.20;99.90;;;;;;4108264;28;20043;-55
2023/05/13 03:59:42;;;;;;;42.25;36.28;;;14.10;99.90;;;;;;4124148;28;20053;-57
2023/05/13 04:01:44;;;;;;;52.08;40.83;;;14.10;99.90;;;;;;4113279;28;20043;-56
2023/05/13 04:03:48;;;;;;;43.00;35.85;;;14.10;99.90;;;;;;4103884;28;20047;-55
2023/05/13 04:05:52;;;;;;;51.72;40.03;;;14.10;99.90;;;;;;4088625;29;20051;-59
2023/05/13 04:07:54;;;;;;;47.50;39.60;;;14.10;99.90;;;;;;4109289;28;20461;-57
2023/05/13 04:09:56;;;;;;;47.75;37.40;;;14.10;99.90;;;;;;4092151;29;20079;-58
2023/05/13 04:11:58;;;;;;;50.60;40.33;;;14.10;99.90;;;;;;4114996;28;20461;-63
2023/05/13 04:14:00;;;;;;;49.92;40.42;;;14.00;99.90;;;;;;4102349;28;20118;-56
2023/05/13 04:16:03;;;;;;;43.42;33.28;;;14.10;99.90;;;;;;4116678;28;20053;-56
2023/05/13 04:18:05;;;;;;;48.97;39.63;;;14.10;99.90;;;;;;4113836;28;20454;-55
2023/05/13 04:20:08;;;;;;;33.25;28.65;;;14.10;99.90;;;;;;4093681;29;20051;-55
2023/05/13 04:22:11;;;;;;;48.65;37.28;;;14.10;99.90;;;;;;4117699;28;20121;-55
2023/05/13 04:24:13;;;;;;;39.47;31.90;;;14.10;99.90;;;;;;4112895;28;20481;-55
2023/05/13 04:26:15;;;;;;;48.50;36.60;;;14.10;99.90;;;;;;4126011;28;20049;-57
2023/05/13 04:28:18;;;;;;;50.92;38.05;;;14.10;99.90;;;;;;4122486;28;20395;-57
2023/05/13 04:30:20;;;;;;;44.38;35.70;;;14.10;99.90;;;;;;4110148;28;20098;-57
2023/05/13 04:32:22;;;;;;;46.33;36.17;;;14.10;99.90;;;;;;4101856;29;20051;-56
2023/05/13 04:34:25;;;;;;;47.30;35.33;;;14.10;99.90;;;;;;4111553;28;20050;-55
2023/05/13 04:36:26;;;;;;;47.72;37.08;;;14.10;99.90;;;;;;4117454;28;20082;-56
2023/05/13 04:38:30;;;;;;;43.83;32.75;;;14.10;99.90;;;;;;4113281;28;20059;-57
2023/05/13 04:40:32;;;;;;;45.70;35.72;;;14.10;99.90;;;;;;4111315;28;20050;-56
2023/05/13 04:42:34;;;;;;;39.15;31.67;;;14.10;99.90;;;;;;4102033;29;20055;-56
2023/05/13 04:44:37;;;;;;;44.85;36.67;;;14.00;99.90;;;;;;4092888;29;20144;-56
2023/05/13 04:46:39;;;;;;;43.83;33.90;;;14.10;99.90;;;;;;4103852;28;20075;-57
2023/05/13 04:48:41;;;;;;;49.13;36.47;;;14.10;99.90;;;;;;4102921;28;20465;-56
2023/05/13 04:50:45;;;;;;;47.35;33.97;;;14.10;99.90;;;;;;4117375;28;20047;-56
2023/05/13 04:52:47;;;;;;;45.22;35.60;;;14.10;99.90;;;;;;4117747;28;20098;-57
2023/05/13 04:54:51;;;;;;;40.28;31.55;;;14.10;99.90;;;;;;4107413;28;20489;-56
2023/05/13 04:56:53;;;;;;;45.53;35.45;;;14.10;99.90;;;;;;4114544;28;20046;-58
2023/05/13 04:58:55;;;;;;;44.35;34.38;;;14.10;99.90;;;;;;4115770;28;20122;-56
2023/05/13 05:00:57;;;;;;;46.50;34.97;;;14.10;99.90;;;;;;4106409;28;20384;-56
2023/05/13 05:02:59;;;;;;;49.75;36.10;;;14.10;99.90;;;;;;4117452;28;20043;-57
2023/05/13 05:05:02;;;;;;;45.42;33.83;;;14.20;99.90;;;;;;4112764;28;20072;-56
2023/05/13 05:07:04;;;;;;;45.33;33.97;;;14.20;99.90;;;;;;4102468;28;20126;-58
2023/05/13 05:09:06;;;;;;;41.65;32.45;;;14.20;99.90;;;;;;4102418;28;20055;-58
2023/05/13 05:11:10;;;;;;;40.50;30.15;;;14.30;99.90;;;;;;4112263;28;20183;-57
2023/05/13 05:13:12;;;;;;;39.75;31.85;;;14.20;99.90;;;;;;4101255;29;20107;-56
2023/05/13 05:15:14;;;;;;;46.05;34.80;;;14.20;99.90;;;;;;4106405;28;20055;-56
2023/05/13 05:17:16;;;;;;;44.08;30.88;;;14.30;99.90;;;;;;4106696;28;20054;-58
2023/05/13 05:19:22;;;;;;;45.80;33.45;;;14.20;99.90;;;;;;4102484;28;20051;-56
2023/05/13 05:21:25;;;;;;;39.90;29.83;;;14.20;99.90;;;;;;4111814;28;20397;-57
2023/05/13 05:23:27;;;;;;;40.25;31.60;;;14.20;99.90;;;;;;4112605;28;20067;-56
2023/05/13 05:25:29;;;;;;;45.05;33.38;;;14.30;99.90;;;;;;4113690;28;20066;-56
2023/05/13 05:27:33;;;;;;;40.08;30.10;;;14.30;99.90;;;;;;4104612;28;20532;-56
2023/05/13 05:29:34;;;;;;;37.55;26.08;;;14.40;99.90;;;;;;4116508;28;20046;-57
2023/05/13 05:31:37;;;;;;;41.38;31.23;;;14.40;99.90;;;;;;4105743;28;20051;-57
2023/05/13 05:33:41;;;;;;;37.25;28.40;;;14.30;99.90;;;;;;4116746;28;20082;-57
2023/05/13 05:35:43;;;;;;;37.88;29.33;;;14.40;99.90;;;;;;4111805;28;20074;-56
2023/05/13 05:37:45;;;;;;;42.33;30.27;;;14.40;99.90;;;;;;4108854;28;20496;-56
2023/05/13 05:39:47;;;;;;;39.85;29.20;;;14.40;99.90;;;;;;4117214;28;20055;-56
2023/05/13 05:41:49;;;;;;;40.15;31.27;;;14.50;99.90;;;;;;4112276;28;20046;-56
2023/05/13 05:43:52;;;;;;;37.72;26.52;;;14.50;99.90;;;;;;4101058;29;20055;-56
2023/05/13 05:45:55;;;;;;;39.95;30.23;;;14.50;99.90;;;;;;4102910;28;20481;-55
2023/05/13 05:47:57;;;;;;;38.60;30.05;;;14.50;99.90;;;;;;4108968;28;20126;-55
2023/05/13 05:49:59;;;;;;;41.83;28.77;;;14.50;99.90;;;;;;4100815;29;20053;-55
2023/05/13 05:52:02;;;;;;;40.35;29.58;;;14.40;99.90;;;;;;4094502;29;20165;-56
2023/05/13 05:54:04;;;;;;;37.85;29.90;;;14.60;99.90;;;;;;4101370;28;20049;-55
2023/05/13 05:56:06;;;;;;;39.28;30.42;;;14.60;99.90;;;;;;4101663;28;20047;-58
2023/05/13 05:58:13;;;;;;;37.80;28.48;;;14.60;99.90;;;;;;4110536;28;20418;-58
2023/05/13 06:00:17;;;;;;;45.85;29.63;;;14.70;99.90;;;;;;4101127;29;20130;-57
2023/05/13 06:02:20;;;;;;;40.28;26.88;;;14.70;99.90;;;;;;4111667;28;20171;-57
2023/05/13 06:04:22;;;;;;;38.50;27.33;;;14.70;99.90;;;;;;4101390;28;20043;-55
2023/05/13 06:06:24;;;;;;;37.78;27.05;;;14.90;99.90;;;;;;4110078;28;20061;-60
2023/05/13 06:08:28;;;;;;;34.20;27.13;;;14.90;99.90;;;;;;4106756;28;20097;-60
2023/05/13 06:10:31;;;;;;;31.50;23.50;;;15.00;99.90;;;;;;4099171;28;20509;-57
2023/05/13 06:12:33;;;;;;;41.50;26.20;;;15.10;99.90;;;;;;4106279;28;20102;-55
2023/05/13 06:14:35;;;;;;;30.25;24.40;;;15.00;99.90;;;;;;4113235;28;20054;-55
2023/05/13 06:16:38;;;;;;;36.70;27.20;;;15.00;99.90;;;;;;4114586;28;20332;-56
2023/05/13 06:18:41;;;;;;;34.22;26.38;;;15.00;99.90;;;;;;4105676;28;20053;-57
2023/05/13 06:20:44;;;;;;;32.95;21.15;;;14.90;99.90;;;;;;4116683;28;20074;-56
2023/05/13 06:22:46;;;;;;;29.27;22.67;;;15.00;99.90;;;;;;4113090;28;20443;-57
2023/05/13 06:24:49;;;;;;;34.75;27.10;;;15.00;99.90;;;;;;4114821;28;20046;-57
2023/05/13 06:26:51;;;;;;;33.63;26.48;;;15.10;99.90;;;;;;4122193;28;20473;-57
2023/05/13 06:28:53;;;;;;;38.22;26.77;;;15.10;99.90;;;;;;4110791;28;20090;-57
2023/05/13 06:30:55;;;;;;;33.45;28.10;;;15.00;99.90;;;;;;4100303;29;20078;-55
2023/05/13 06:32:58;;;;;;;40.72;28.58;;;14.90;99.90;;;;;;4101287;28;20486;-57
2023/05/13 06:35:04;;;;;;;37.78;27.88;;;14.80;99.90;;;;;;4100868;28;20199;-57
2023/05/13 06:37:06;;;;;;;40.92;28.42;;;14.80;99.90;;;;;;4100990;28;20047;-57
2023/05/13 06:39:09;;;;;;;42.10;29.10;;;14.80;99.90;;;;;;4105357;28;20086;-56
2023/05/13 06:41:11;;;;;;;36.88;26.40;;;14.90;99.90;;;;;;4116043;28;20051;-55
2023/05/13 06:43:15;;;;;;;36.10;27.20;;;15.00;99.90;;;;;;4108860;28;20114;-61
2023/05/13 06:45:21;;;;;;;42.67;28.77;;;15.00;99.90;;;;;;4110016;28;20073;-57
2023/05/13 06:47:24;;;;;;;39.13;29.40;;;15.20;99.90;;;;;;4114516;28;20565;-57
2023/05/13 06:49:27;;;;;;;39.42;27.48;;;15.30;99.90;;;;;;4105188;28;20051;-57
2023/05/13 06:51:31;;;;;;;39.35;25.75;;;15.40;99.90;;;;;;4115924;28;20043;-58
2023/05/13 06:53:33;;;;;;;36.70;26.90;;;15.40;99.90;;;;;;4108550;28;20288;-56
2023/05/13 06:55:40;;;;;;;41.00;28.95;;;15.50;99.90;;;;;;4109579;28;20077;-56
2023/05/13 06:57:45;;;;;;;40.45;28.08;;;15.50;99.90;;;;;;4114467;28;20046;-58
2023/05/13 06:59:47;;;;;;;;;;;15.50;99.90;;;;;;4105656;28;20043;-56
2023/05/13 07:01:49;;;;;;;40.85;27.90;;;15.50;99.90;;;;;;4115755;28;20013;-55
2023/05/13 07:03:51;;;;;;;40.60;27.70;;;15.60;99.90;;;;;;4092749;28;20058;-55
2023/05/13 07:05:54;;;;;;;42.63;29.48;;;15.80;99.90;;;;;;4111100;28;20481;-57
2023/05/13 07:07:56;;;;;;;42.47;29.10;;;16.00;99.90;;;;;;4113734;28;20050;-63
2023/05/13 07:09:58;;;;;;;40.35;28.92;;;16.10;99.90;;;;;;4104853;28;20051;-56
2023/05/13 07:12:00;;;;;;;41.65;28.95;;;15.90;99.90;;;;;;4115311;28;20069;-56
2023/05/13 07:14:02;;;;;;;44.95;28.77;;;15.80;99.90;;;;;;4109895;28;20043;-56
2023/05/13 07:16:05;;;;;;;44.55;30.50;;;15.90;99.90;;;;;;4107983;28;20058;-57
2023/05/13 07:18:07;;;;;;;45.85;29.38;;;15.90;99.90;;;;;;4098001;29;20489;-57
2023/05/13 07:20:10;;;;;;;41.83;30.67;;;16.20;99.90;;;;;;4104523;28;20122;-58
2023/05/13 07:22:13;;;;;;;40.90;30.13;;;16.10;99.90;;;;;;4115537;28;20125;-56
2023/05/13 07:24:15;;;;;;;52.78;32.33;;;16.00;99.90;;;;;;4110737;28;20039;-60
2023/05/13 07:26:17;;;;;;;51.22;30.40;;;16.10;99.90;;;;;;4106952;28;20047;-57
2023/05/13 07:28:19;;;;;;;45.60;31.48;;;16.10;99.90;;;;;;4115394;28;20043;-56
2023/05/13 07:30:22;;;;;;;42.38;31.05;;;16.00;99.90;;;;;;4103463;28;20077;-56
2023/05/13 07:32:24;;;;;;;43.58;31.70;;;16.10;99.90;;;;;;4115277;28;20078;-56
2023/05/13 07:34:26;;;;;;;42.88;31.20;;;16.20;99.90;;;;;;4110871;28;20043;-57
2023/05/13 07:36:28;;;;;;;42.28;30.40;;;16.30;99.90;;;;;;4107219;28;20054;-57
2023/05/13 07:38:32;;;;;;;43.53;30.60;;;16.20;99.90;;;;;;4105653;28;20556;-57
2023/05/13 07:40:34;;;;;;;51.88;32.78;;;16.30;99.90;;;;;;4104390;28;20094;-56
2023/05/13 07:42:36;;;;;;;46.03;33.17;;;16.30;99.90;;;;;;4113710;28;20050;-57
2023/05/13 07:44:39;;;;;;;43.88;32.60;;;16.10;99.90;;;;;;4112766;28;20081;-57
2023/05/13 07:46:41;;;;;;;48.55;31.40;;;16.10;99.90;;;;;;4105016;28;20045;-56
2023/05/13 07:48:43;;;;;;;44.25;32.75;;;16.20;99.90;;;;;;4115461;28;20047;-56
2023/05/13 07:50:45;;;;;;;48.20;35.25;;;16.20;99.90;;;;;;4104677;28;20162;-58
2023/05/13 07:52:50;;;;;;;50.15;36.47;;;16.20;99.90;;;;;;4114592;28;20429;-57
2023/05/13 07:54:54;;;;;;;53.17;34.17;;;16.00;99.90;;;;;;4112747;28;20057;-57
2023/05/13 07:56:56;;;;;;;51.95;34.30;;;16.00;99.90;;;;;;4104745;28;20047;-57
2023/05/13 07:58:58;;;;;;;52.17;35.63;;;16.00;99.90;;;;;;4115686;28;20051;-60
2023/05/13 08:01:00;;;;;;;56.80;38.00;;;16.00;99.90;;;;;;4107264;28;20450;-61
2023/05/13 08:03:02;;;;;;;48.08;36.63;;;15.90;99.90;;;;;;4095475;28;20055;-57
2023/05/13 08:05:05;;;;;;;53.95;36.17;;;15.90;99.90;;;;;;4113138;28;20126;-55
2023/05/13 08:07:10;;;;;;;58.55;38.60;;;16.00;99.90;;;;;;4104940;28;20082;-57
2023/05/13 08:09:13;;;;;;;56.08;40.20;;;16.00;99.90;;;;;;4116113;28;20051;-62
2023/05/13 08:11:16;;;;;;;54.50;39.13;;;15.90;99.90;;;;;;4107532;28;20199;-56
2023/05/13 08:13:18;;;;;;;57.63;39.67;;;15.80;99.90;;;;;;4111262;28;20051;-56
2023/05/13 08:15:20;;;;;;;55.10;38.40;;;15.90;99.90;;;;;;4112927;28;20341;-57
2023/05/13 08:17:23;;;;;;;55.42;39.50;;;15.90;99.90;;;;;;4104376;28;20047;-57
2023/05/13 08:19:25;;;;;;;56.35;39.20;;;16.00;99.90;;;;;;4115435;28;20051;-56
2023/05/13 08:21:27;;;;;;;59.33;40.45;;;15.90;99.90;;;;;;4108997;28;20122;-58
2023/05/13 08:23:29;;;;;;;67.97;40.30;;;15.90;99.90;;;;;;4110743;28;20119;-56
2023/05/13 08:25:46;;;;;;;57.17;40.42;;;15.90;99.90;;;;;;4111257;28;20050;-56
2023/05/13 08:27:49;;;;;;;59.53;40.10;;;16.00;99.90;;;;;;4093119;29;20071;-57
2023/05/13 08:29:52;;;;;;;57.63;38.42;;;16.00;99.90;;;;;;4099033;29;20051;-59
2023/05/13 08:31:54;;;;;;;61.63;40.40;;;15.90;99.90;;;;;;4105955;28;20460;-57
2023/05/13 08:33:56;;;;;;;55.95;39.45;;;15.90;99.90;;;;;;4107852;28;20051;-57
2023/05/13 08:35:59;;;;;;;62.42;42.78;;;15.80;99.90;;;;;;4111833;28;20058;-55
2023/05/13 08:38:04;;;;;;;55.47;40.33;;;15.80;99.90;;;;;;4101481;28;20093;-57
2023/05/13 08:40:08;;;;;;;59.58;39.72;;;15.90;99.90;;;;;;4098580;29;20058;-55
2023/05/13 08:42:11;;;;;;;60.42;40.15;;;15.90;99.90;;;;;;4111264;28;20073;-56
2023/05/13 08:44:17;;;;;;;57.63;40.03;;;15.80;99.90;;;;;;4114152;28;20039;-58
2023/05/13 08:46:25;;;;;;;57.58;38.42;;;15.90;99.90;;;;;;4111874;28;20381;-57
2023/05/13 08:48:28;;;;;;;54.83;37.83;;;16.00;99.90;;;;;;4113310;28;20074;-57
2023/05/13 08:50:31;;;;;;;52.80;39.33;;;16.10;99.90;;;;;;4113666;28;20473;-56
2023/05/13 08:52:33;;;;;;;55.50;38.33;;;16.10;99.90;;;;;;4107270;28;20153;-57
2023/05/13 08:54:37;;;;;;;55.00;37.40;;;16.00;99.90;;;;;;4109985;28;20055;-57
2023/05/13 08:56:39;;;;;;;60.63;39.83;;;16.00;99.90;;;;;;4111967;28;20105;-57
2023/05/13 08:58:41;;;;;;;55.40;38.92;;;15.90;99.90;;;;;;4103545;28;20055;-56
2023/05/13 09:00:45;;;;;;;51.30;36.92;;;16.00;99.90;;;;;;4109996;28;20054;-57
2023/05/13 09:02:48;;;;;;;52.57;38.37;;;16.20;99.90;;;;;;4114768;28;20496;-55
2023/05/13 09:04:52;;;;;;;49.63;33.90;;;16.20;99.90;;;;;;4107656;28;20496;-56
2023/05/13 09:06:55;;;;;;;47.88;34.17;;;16.40;99.90;;;;;;4111523;28;20074;-56
2023/05/13 09:08:57;;;;;;;55.53;35.67;;;16.70;99.90;;;;;;4095781;29;20141;-56
2023/05/13 09:10:59;;;;;;;48.30;34.70;;;16.80;99.90;;;;;;4108943;28;20047;-56
2023/05/13 09:13:02;;;;;;;49.30;33.88;;;16.90;99.90;;;;;;4115740;28;21403;-57
2023/05/13 09:15:08;;;;;;;50.60;34.33;;;16.90;99.90;;;;;;4116228;28;20062;-58
2023/05/13 09:17:12;;;;;;;50.45;33.70;;;16.80;99.90;;;;;;4116091;28;20479;-56
2023/05/13 09:19:14;;;;;;;45.20;32.97;;;16.70;99.90;;;;;;4113234;28;20038;-57
2023/05/13 09:21:23;;;;;;;48.42;30.10;;;16.70;99.90;;;;;;4115982;28;20472;-58
2023/05/13 09:23:26;;;;;;;46.10;33.53;;;16.70;99.90;;;;;;4111249;28;20051;-56
2023/05/13 09:25:28;;;;;;;44.97;32.67;;;16.80;99.90;;;;;;4116250;28;20046;-55
2023/05/13 09:27:37;;;;;;;40.97;29.02;;;16.70;99.90;;;;;;4103401;28;20401;-56
2023/05/13 09:29:39;;;;;;;48.17;32.47;;;16.60;99.90;;;;;;4111925;28;20176;-56
2023/05/13 09:31:41;;;;;;;47.38;31.80;;;16.60;99.90;;;;;;4101179;29;20328;-55
2023/05/13 09:33:52;;;;;;;47.67;32.38;;;16.70;99.90;;;;;;4106039;28;20051;-56
2023/05/13 09:35:54;;;;;;;44.47;32.00;;;16.70;99.90;;;;;;4115707;28;20122;-55
2023/05/13 09:37:57;;;;;;;43.17;29.70;;;16.80;99.90;;;;;;4115531;28;20459;-56
2023/05/13 09:39:59;;;;;;;43.28;31.33;;;17.10;99.90;;;;;;4110001;28;20038;-56
2023/05/13 09:42:02;;;;;;;42.95;30.33;;;17.40;99.90;;;;;;4100700;29;20051;-57
2023/05/13 09:44:08;;;;;;;;;;;17.50;99.90;;;;;;4107901;28;20046;-56
2023/05/13 09:46:10;;;;;;;43.63;31.85;;;17.60;99.90;;;;;;4115405;28;19929;-57
2023/05/13 09:48:13;;;;;;;44.83;30.75;;;17.50;99.90;;;;;;4115685;28;20157;-56
2023/05/13 09:50:16;;;;;;;42.40;29.63;;;17.40;99.90;;;;;;4105742;28;20101;-57
2023/05/13 09:52:20;;;;;;;41.10;29.77;;;17.50;99.90;;;;;;4116749;28;20050;-57
2023/05/13 09:54:22;;;;;;;43.33;29.57;;;17.50;99.90;;;;;;4112091;28;20046;-55
2023/05/13 09:56:29;;;;;;;42.50;29.08;;;17.50;99.90;;;;;;4106648;28;20546;-58
2023/05/13 09:58:32;;;;;;;42.42;29.50;;;17.40;99.90;;;;;;4101316;28;20143;-57
2023/05/13 10:00:34;;;;;;;41.78;29.17;;;17.40;99.90;;;;;;4112639;28;20039;-56
2023/05/13 10:02:40;;;;;;;47.42;30.27;;;17.50;99.80;;;;;;4116260;28;20131;-56
2023/05/13 10:04:43;;;;;;;38.33;29.20;;;17.70;99.40;;;;;;4115783;28;20046;-56
2023/05/13 10:06:48;;;;;;;41.20;27.60;;;17.80;99.60;;;;;;4114380;28;20055;-56
2023/05/13 10:08:51;;;;;;;;;;;17.90;99.70;;;;;;4116730;28;20055;-57
2023/05/13 10:10:55;;;;;;;41.78;28.70;;;18.00;99.20;;;;;;4105114;28;19923;-56
2023/05/13 10:13:02;;;;;;;41.30;28.23;;;18.00;99.40;;;;;;4115593;28;20051;-53
2023/05/13 10:15:05;;;;;;;38.75;27.77;;;18.20;99.60;;;;;;4104449;28;20047;-55
2023/05/13 10:17:08;;;;;;;38.70;26.08;;;18.20;98.40;;;;;;4088552;29;20083;-55
2023/05/13 10:19:11;;;;;;;42.25;25.52;;;18.30;98.60;;;;;;4108875;28;20138;-57
2023/05/13 10:21:14;;;;;;;39.08;27.50;;;18.50;98.60;;;;;;4111644;28;20047;-58
2023/05/13 10:23:19;;;;;;;39.00;28.05;;;18.50;98.40;;;;;;4110218;28;20478;-57
2023/05/13 10:25:21;;;;;;;39.83;28.23;;;18.50;98.50;;;;;;4112194;28;20110;-54
2023/05/13 10:27:30;;;;;;;37.97;28.35;;;18.40;98.30;;;;;;4118788;28;20472;-57
2023/05/13 10:29:34;;;;;;;41.97;29.20;;;18.40;98.60;;;;;;4114795;28;20092;-54